sensor_id;sensor_type;location;lat;lon;timestamp;P1;durP1;ratioP1;P2;durP2;ratioP2
51664;SDS011;37751;52.408;12.536;2024-02-16T00:01:40;9.50;;;4.50;;
51664;SDS011;37751;52.408;12.536;2024-02-16T00:04:14;7.25;;;3.95;;
51664;SDS011;37751;52.408;12.536;2024-02-16T00:06:49;7.65;;;4.25;;
51664;SDS011;37751;52.408;12.536;2024-02-16T00:09:24;9.70;;;4.63;;
51664;SDS011;37751;52.408;12.536;2024-02-16T00:12:03;7.75;;;4.22;;
51664;SDS011;37751;52.408;12.536;2024-02-16T00:14:38;8.43;;;4.43;;
51664;SDS011;37751;52.408;12.536;2024-02-16T00:17:33;5.97;;;4.63;;
51664;SDS011;37751;52.408;12.536;2024-02-16T00:20:10;8.13;;;4.75;;
51664;SDS011;37751;52.408;12.536;2024-02-16T00:23:07;10.05;;;4.80;;
51664;SDS011;37751;52.408;12.536;2024-02-16T00:25:42;6.88;;;4.38;;
51664;SDS011;37751;52.408;12.536;2024-02-16T00:28:13;7.72;;;4.25;;
51664;SDS011;37751;52.408;12.536;2024-02-16T00:30:48;6.70;;;4.40;;
51664;SDS011;37751;52.408;12.536;2024-02-16T00:33:45;6.47;;;4.78;;
51664;SDS011;37751;52.408;12.536;2024-02-16T00:36:19;8.55;;;4.60;;
51664;SDS011;37751;52.408;12.536;2024-02-16T00:38:51;7.55;;;4.25;;
51664;SDS011;37751;52.408;12.536;2024-02-16T00:41:26;6.28;;;4.22;;
51664;SDS011;37751;52.408;12.536;2024-02-16T00:43:57;8.43;;;4.43;;
51664;SDS011;37751;52.408;12.536;2024-02-16T00:46:38;14.18;;;5.47;;
51664;SDS011;37751;52.408;12.536;2024-02-16T00:49:10;7.10;;;4.50;;
51664;SDS011;37751;52.408;12.536;2024-02-16T00:52:05;9.05;;;4.70;;
51664;SDS011;37751;52.408;12.536;2024-02-16T00:54:40;6.32;;;4.30;;
51664;SDS011;37751;52.408;12.536;2024-02-16T00:57:33;11.18;;;4.82;;
51664;SDS011;37751;52.408;12.536;2024-02-16T01:00:14;6.30;;;4.07;;
51664;SDS011;37751;52.408;12.536;2024-02-16T01:02:48;9.32;;;5.00;;
51664;SDS011;37751;52.408;12.536;2024-02-16T01:05:26;6.84;;;4.62;;
51664;SDS011;37751;52.408;12.536;2024-02-16T01:08:27;7.63;;;4.50;;
51664;SDS011;37751;52.408;12.536;2024-02-16T01:11:04;8.13;;;4.55;;
51664;SDS011;37751;52.408;12.536;2024-02-16T01:13:58;10.45;;;5.03;;
51664;SDS011;37751;52.408;12.536;2024-02-16T01:16:34;9.27;;;4.68;;
51664;SDS011;37751;52.408;12.536;2024-02-16T01:19:16;7.32;;;4.70;;
51664;SDS011;37751;52.408;12.536;2024-02-16T01:22:13;10.77;;;4.93;;
51664;SDS011;37751;52.408;12.536;2024-02-16T01:25:10;7.25;;;4.60;;
51664;SDS011;37751;52.408;12.536;2024-02-16T01:27:55;9.90;;;4.25;;
51664;SDS011;37751;52.408;12.536;2024-02-16T01:30:54;6.75;;;4.47;;
51664;SDS011;37751;52.408;12.536;2024-02-16T01:33:57;7.95;;;4.47;;
51664;SDS011;37751;52.408;12.536;2024-02-16T01:36:43;9.98;;;4.50;;
51664;SDS011;37751;52.408;12.536;2024-02-16T01:39:46;7.40;;;4.18;;
51664;SDS011;37751;52.408;12.536;2024-02-16T01:42:25;6.30;;;3.95;;
51664;SDS011;37751;52.408;12.536;2024-02-16T01:44:59;10.50;;;4.80;;
51664;SDS011;37751;52.408;12.536;2024-02-16T01:47:39;7.25;;;4.55;;
51664;SDS011;37751;52.408;12.536;2024-02-16T01:50:14;5.72;;;4.85;;
51664;SDS011;37751;52.408;12.536;2024-02-16T01:52:58;8.55;;;3.97;;
51664;SDS011;37751;52.408;12.536;2024-02-16T01:55:52;9.50;;;4.30;;
51664;SDS011;37751;52.408;12.536;2024-02-16T01:58:47;8.70;;;4.15;;
51664;SDS011;37751;52.408;12.536;2024-02-16T02:01:39;7.80;;;4.35;;
51664;SDS011;37751;52.408;12.536;2024-02-16T02:04:23;7.80;;;4.22;;
51664;SDS011;37751;52.408;12.536;2024-02-16T02:07:15;7.55;;;4.22;;
51664;SDS011;37751;52.408;12.536;2024-02-16T02:09:59;10.85;;;4.40;;
51664;SDS011;37751;52.408;12.536;2024-02-16T02:12:34;8.10;;;4.40;;
51664;SDS011;37751;52.408;12.536;2024-02-16T02:15:28;8.43;;;4.60;;
51664;SDS011;37751;52.408;12.536;2024-02-16T02:18:16;8.77;;;4.78;;
51664;SDS011;37751;52.408;12.536;2024-02-16T02:21:11;16.20;;;4.63;;
51664;SDS011;37751;52.408;12.536;2024-02-16T02:24:28;6.53;;;4.68;;
51664;SDS011;37751;52.408;12.536;2024-02-16T02:27:40;9.68;;;5.78;;
51664;SDS011;37751;52.408;12.536;2024-02-16T02:30:35;7.28;;;5.07;;
51664;SDS011;37751;52.408;12.536;2024-02-16T02:33:10;8.32;;;5.65;;
51664;SDS011;37751;52.408;12.536;2024-02-16T02:36:21;7.85;;;5.32;;
51664;SDS011;37751;52.408;12.536;2024-02-16T02:39:35;8.32;;;5.15;;
51664;SDS011;37751;52.408;12.536;2024-02-16T02:42:48;8.02;;;5.78;;
51664;SDS011;37751;52.408;12.536;2024-02-16T02:45:41;8.07;;;5.65;;
51664;SDS011;37751;52.408;12.536;2024-02-16T02:48:23;9.82;;;6.22;;
51664;SDS011;37751;52.408;12.536;2024-02-16T02:51:36;9.88;;;6.75;;
51664;SDS011;37751;52.408;12.536;2024-02-16T02:54:50;9.10;;;6.63;;
51664;SDS011;37751;52.408;12.536;2024-02-16T02:58:02;16.15;;;6.65;;
51664;SDS011;37751;52.408;12.536;2024-02-16T03:00:55;10.63;;;6.05;;
51664;SDS011;37751;52.408;12.536;2024-02-16T03:03:49;9.30;;;6.00;;
51664;SDS011;37751;52.408;12.536;2024-02-16T03:06:54;10.65;;;6.80;;
51664;SDS011;37751;52.408;12.536;2024-02-16T03:10:09;8.35;;;6.63;;
51664;SDS011;37751;52.408;12.536;2024-02-16T03:13:08;13.57;;;6.63;;
51664;SDS011;37751;52.408;12.536;2024-02-16T03:16:15;8.80;;;6.47;;
51664;SDS011;37751;52.408;12.536;2024-02-16T03:19:07;14.13;;;7.40;;
51664;SDS011;37751;52.408;12.536;2024-02-16T03:22:20;9.68;;;6.72;;
51664;SDS011;37751;52.408;12.536;2024-02-16T03:25:32;13.35;;;7.22;;
51664;SDS011;37751;52.408;12.536;2024-02-16T03:28:44;11.10;;;8.05;;
51664;SDS011;37751;52.408;12.536;2024-02-16T03:31:57;11.55;;;8.70;;
51664;SDS011;37751;52.408;12.536;2024-02-16T03:34:57;12.63;;;8.50;;
51664;SDS011;37751;52.408;12.536;2024-02-16T03:37:48;15.35;;;8.73;;
51664;SDS011;37751;52.408;12.536;2024-02-16T03:40:36;13.25;;;7.93;;
51664;SDS011;37751;52.408;12.536;2024-02-16T03:43:48;13.15;;;8.65;;
51664;SDS011;37751;52.408;12.536;2024-02-16T03:46:41;14.25;;;8.10;;
51664;SDS011;37751;52.408;12.536;2024-02-16T03:49:37;16.20;;;8.38;;
51664;SDS011;37751;52.408;12.536;2024-02-16T03:52:14;15.05;;;8.20;;
51664;SDS011;37751;52.408;12.536;2024-02-16T03:55:16;12.35;;;8.35;;
51664;SDS011;37751;52.408;12.536;2024-02-16T03:58:13;13.00;;;7.97;;
51664;SDS011;37751;52.408;12.536;2024-02-16T04:00:57;10.80;;;8.15;;
51664;SDS011;37751;52.408;12.536;2024-02-16T04:03:32;14.63;;;8.45;;
51664;SDS011;37751;52.408;12.536;2024-02-16T04:06:11;13.70;;;8.05;;
51664;SDS011;37751;52.408;12.536;2024-02-16T04:08:42;10.55;;;7.85;;
51664;SDS011;37751;52.408;12.536;2024-02-16T04:11:25;14.45;;;8.35;;
51664;SDS011;37751;52.408;12.536;2024-02-16T04:14:23;13.70;;;8.85;;
51664;SDS011;37751;52.408;12.536;2024-02-16T04:16:57;12.70;;;9.13;;
51664;SDS011;37751;52.408;12.536;2024-02-16T04:19:42;14.18;;;8.40;;
51664;SDS011;37751;52.408;12.536;2024-02-16T04:22:34;12.15;;;9.07;;
51664;SDS011;37751;52.408;12.536;2024-02-16T04:25:19;15.90;;;8.30;;
51664;SDS011;37751;52.408;12.536;2024-02-16T04:28:31;12.05;;;8.45;;
51664;SDS011;37751;52.408;12.536;2024-02-16T04:31:14;13.00;;;8.23;;
51664;SDS011;37751;52.408;12.536;2024-02-16T04:34:06;11.13;;;8.27;;
51664;SDS011;37751;52.408;12.536;2024-02-16T04:36:48;13.70;;;8.70;;
51664;SDS011;37751;52.408;12.536;2024-02-16T04:39:40;13.77;;;8.15;;
51664;SDS011;37751;52.408;12.536;2024-02-16T04:42:32;11.07;;;7.88;;
51664;SDS011;37751;52.408;12.536;2024-02-16T04:45:35;10.45;;;7.40;;
51664;SDS011;37751;52.408;12.536;2024-02-16T04:48:32;13.80;;;8.15;;
51664;SDS011;37751;52.408;12.536;2024-02-16T04:51:16;11.65;;;8.55;;
51664;SDS011;37751;52.408;12.536;2024-02-16T04:54:19;18.98;;;8.35;;
51664;SDS011;37751;52.408;12.536;2024-02-16T04:57:04;12.52;;;8.27;;
51664;SDS011;37751;52.408;12.536;2024-02-16T04:59:36;14.15;;;8.05;;
51664;SDS011;37751;52.408;12.536;2024-02-16T05:02:13;13.95;;;8.43;;
51664;SDS011;37751;52.408;12.536;2024-02-16T05:05:18;11.77;;;8.02;;
51664;SDS011;37751;52.408;12.536;2024-02-16T05:08:21;14.20;;;7.78;;
51664;SDS011;37751;52.408;12.536;2024-02-16T05:10:53;10.43;;;8.02;;
51664;SDS011;37751;52.408;12.536;2024-02-16T05:13:31;12.02;;;8.35;;
51664;SDS011;37751;52.408;12.536;2024-02-16T05:16:06;14.00;;;7.80;;
51664;SDS011;37751;52.408;12.536;2024-02-16T05:19:19;12.95;;;7.93;;
51664;SDS011;37751;52.408;12.536;2024-02-16T05:22:31;12.32;;;6.88;;
51664;SDS011;37751;52.408;12.536;2024-02-16T05:25:23;10.05;;;7.63;;
51664;SDS011;37751;52.408;12.536;2024-02-16T05:28:25;12.77;;;7.25;;
51664;SDS011;37751;52.408;12.536;2024-02-16T05:31:14;12.30;;;6.75;;
51664;SDS011;37751;52.408;12.536;2024-02-16T05:33:48;10.77;;;6.90;;
51664;SDS011;37751;52.408;12.536;2024-02-16T05:36:24;9.25;;;6.07;;
51664;SDS011;37751;52.408;12.536;2024-02-16T05:39:46;12.95;;;7.32;;
51664;SDS011;37751;52.408;12.536;2024-02-16T05:42:56;11.20;;;6.38;;
51664;SDS011;37751;52.408;12.536;2024-02-16T05:46:12;12.75;;;8.40;;
51664;SDS011;37751;52.408;12.536;2024-02-16T05:48:44;13.52;;;7.30;;
51664;SDS011;37751;52.408;12.536;2024-02-16T05:51:46;12.82;;;7.53;;
51664;SDS011;37751;52.408;12.536;2024-02-16T05:55:28;13.57;;;6.75;;
51664;SDS011;37751;52.408;12.536;2024-02-16T05:58:20;12.32;;;6.47;;
51664;SDS011;37751;52.408;12.536;2024-02-16T06:01:32;11.18;;;6.35;;
51664;SDS011;37751;52.408;12.536;2024-02-16T06:04:29;11.07;;;7.28;;
51664;SDS011;37751;52.408;12.536;2024-02-16T06:07:30;11.52;;;6.15;;
51664;SDS011;37751;52.408;12.536;2024-02-16T06:10:49;8.15;;;6.07;;
51664;SDS011;37751;52.408;12.536;2024-02-16T06:14:02;9.10;;;6.60;;
51664;SDS011;37751;52.408;12.536;2024-02-16T06:17:14;12.95;;;6.85;;
51664;SDS011;37751;52.408;12.536;2024-02-16T06:20:17;10.45;;;6.47;;
51664;SDS011;37751;52.408;12.536;2024-02-16T06:23:30;13.05;;;6.50;;
51664;SDS011;37751;52.408;12.536;2024-02-16T06:26:45;8.40;;;6.10;;
51664;SDS011;37751;52.408;12.536;2024-02-16T06:29:42;10.40;;;5.85;;
51664;SDS011;37751;52.408;12.536;2024-02-16T06:32:31;10.73;;;5.88;;
51664;SDS011;37751;52.408;12.536;2024-02-16T06:35:10;12.38;;;5.57;;
51664;SDS011;37751;52.408;12.536;2024-02-16T06:37:42;13.95;;;6.80;;
51664;SDS011;37751;52.408;12.536;2024-02-16T06:40:26;9.45;;;6.03;;
51664;SDS011;37751;52.408;12.536;2024-02-16T06:43:20;10.00;;;6.32;;
51664;SDS011;37751;52.408;12.536;2024-02-16T06:46:21;11.32;;;5.93;;
51664;SDS011;37751;52.408;12.536;2024-02-16T06:49:35;11.18;;;5.20;;
51664;SDS011;37751;52.408;12.536;2024-02-16T06:52:47;8.60;;;5.07;;
51664;SDS011;37751;52.408;12.536;2024-02-16T06:55:26;12.15;;;5.07;;
51664;SDS011;37751;52.408;12.536;2024-02-16T06:58:39;10.25;;;5.57;;
51664;SDS011;37751;52.408;12.536;2024-02-16T07:01:36;9.90;;;5.30;;
51664;SDS011;37751;52.408;12.536;2024-02-16T07:04:43;12.50;;;4.82;;
51664;SDS011;37751;52.408;12.536;2024-02-16T07:07:55;9.18;;;4.97;;
51664;SDS011;37751;52.408;12.536;2024-02-16T07:10:58;9.70;;;4.50;;
51664;SDS011;37751;52.408;12.536;2024-02-16T07:13:58;7.05;;;4.53;;
51664;SDS011;37751;52.408;12.536;2024-02-16T07:16:42;8.73;;;5.20;;
51664;SDS011;37751;52.408;12.536;2024-02-16T07:19:27;7.70;;;4.68;;
51664;SDS011;37751;52.408;12.536;2024-02-16T07:22:39;8.35;;;4.50;;
51664;SDS011;37751;52.408;12.536;2024-02-16T07:25:44;10.10;;;4.97;;
51664;SDS011;37751;52.408;12.536;2024-02-16T07:28:21;8.30;;;4.50;;
51664;SDS011;37751;52.408;12.536;2024-02-16T07:31:36;7.63;;;4.65;;
51664;SDS011;37751;52.408;12.536;2024-02-16T07:34:37;10.18;;;4.85;;
51664;SDS011;37751;52.408;12.536;2024-02-16T07:37:20;6.43;;;4.47;;
51664;SDS011;37751;52.408;12.536;2024-02-16T07:40:23;9.13;;;4.63;;
51664;SDS011;37751;52.408;12.536;2024-02-16T07:43:14;10.35;;;4.05;;
51664;SDS011;37751;52.408;12.536;2024-02-16T07:46:17;7.07;;;4.63;;
51664;SDS011;37751;52.408;12.536;2024-02-16T07:49:22;9.05;;;3.88;;
51664;SDS011;37751;52.408;12.536;2024-02-16T07:52:34;7.50;;;3.50;;
51664;SDS011;37751;52.408;12.536;2024-02-16T07:55:36;9.57;;;4.28;;
51664;SDS011;37751;52.408;12.536;2024-02-16T07:58:40;11.32;;;3.90;;
51664;SDS011;37751;52.408;12.536;2024-02-16T08:01:47;5.18;;;3.60;;
51664;SDS011;37751;52.408;12.536;2024-02-16T08:05:00;4.93;;;3.42;;
51664;SDS011;37751;52.408;12.536;2024-02-16T08:08:04;7.30;;;3.70;;
51664;SDS011;37751;52.408;12.536;2024-02-16T08:11:13;9.57;;;3.70;;
51664;SDS011;37751;52.408;12.536;2024-02-16T08:14:29;5.32;;;3.38;;
51664;SDS011;37751;52.408;12.536;2024-02-16T08:17:35;6.15;;;3.20;;
51664;SDS011;37751;52.408;12.536;2024-02-16T08:21:01;9.70;;;3.08;;
51664;SDS011;37751;52.408;12.536;2024-02-16T08:23:48;10.10;;;3.22;;
51664;SDS011;37751;52.408;12.536;2024-02-16T08:26:50;7.68;;;2.60;;
51664;SDS011;37751;52.408;12.536;2024-02-16T08:30:02;11.23;;;3.08;;
51664;SDS011;37751;52.408;12.536;2024-02-16T08:33:17;6.18;;;3.13;;
51664;SDS011;37751;52.408;12.536;2024-02-16T08:36:12;7.05;;;3.33;;
51664;SDS011;37751;52.408;12.536;2024-02-16T08:39:26;5.57;;;2.70;;
51664;SDS011;37751;52.408;12.536;2024-02-16T08:42:18;4.88;;;2.70;;
51664;SDS011;37751;52.408;12.536;2024-02-16T08:44:51;6.80;;;2.50;;
51664;SDS011;37751;52.408;12.536;2024-02-16T08:47:43;8.48;;;2.28;;
51664;SDS011;37751;52.408;12.536;2024-02-16T08:50:59;7.22;;;1.83;;
51664;SDS011;37751;52.408;12.536;2024-02-16T08:53:55;5.97;;;2.20;;
51664;SDS011;37751;52.408;12.536;2024-02-16T08:56:52;5.18;;;2.03;;
51664;SDS011;37751;52.408;12.536;2024-02-16T08:59:26;7.82;;;2.40;;
51664;SDS011;37751;52.408;12.536;2024-02-16T09:02:28;2.55;;;1.70;;
51664;SDS011;37751;52.408;12.536;2024-02-16T09:05:15;4.75;;;2.03;;
51664;SDS011;37751;52.408;12.536;2024-02-16T09:07:58;2.33;;;1.60;;
51664;SDS011;37751;52.408;12.536;2024-02-16T09:10:53;2.60;;;1.60;;
51664;SDS011;37751;52.408;12.536;2024-02-16T09:13:39;4.75;;;2.30;;
51664;SDS011;37751;52.408;12.536;2024-02-16T09:16:42;4.68;;;2.20;;
51664;SDS011;37751;52.408;12.536;2024-02-16T09:19:55;9.25;;;2.10;;
51664;SDS011;37751;52.408;12.536;2024-02-16T09:22:58;4.57;;;2.10;;
51664;SDS011;37751;52.408;12.536;2024-02-16T09:25:30;3.35;;;1.80;;
51664;SDS011;37751;52.408;12.536;2024-02-16T09:28:08;3.92;;;1.90;;
51664;SDS011;37751;52.408;12.536;2024-02-16T09:31:13;4.15;;;1.80;;
51664;SDS011;37751;52.408;12.536;2024-02-16T09:33:51;10.57;;;2.08;;
51664;SDS011;37751;52.408;12.536;2024-02-16T09:36:22;4.60;;;1.90;;
51664;SDS011;37751;52.408;12.536;2024-02-16T09:38:55;5.85;;;1.75;;
51664;SDS011;37751;52.408;12.536;2024-02-16T09:41:48;6.72;;;1.70;;
51664;SDS011;37751;52.408;12.536;2024-02-16T09:44:29;5.03;;;1.98;;
51664;SDS011;37751;52.408;12.536;2024-02-16T09:47:24;6.70;;;2.30;;
51664;SDS011;37751;52.408;12.536;2024-02-16T09:50:03;5.95;;;2.42;;
51664;SDS011;37751;52.408;12.536;2024-02-16T09:53:07;5.00;;;2.30;;
51664;SDS011;37751;52.408;12.536;2024-02-16T09:55:48;8.57;;;3.00;;
51664;SDS011;37751;52.408;12.536;2024-02-16T09:58:30;7.45;;;3.80;;
51664;SDS011;37751;52.408;12.536;2024-02-16T10:01:26;9.27;;;3.40;;
51664;SDS011;37751;52.408;12.536;2024-02-16T10:04:07;7.22;;;3.10;;
51664;SDS011;37751;52.408;12.536;2024-02-16T10:07:07;10.57;;;3.33;;
51664;SDS011;37751;52.408;12.536;2024-02-16T10:10:02;15.20;;;4.53;;
51664;SDS011;37751;52.408;12.536;2024-02-16T10:13:04;7.63;;;3.80;;
51664;SDS011;37751;52.408;12.536;2024-02-16T10:16:05;9.70;;;4.95;;
51664;SDS011;37751;52.408;12.536;2024-02-16T10:19:22;10.40;;;5.10;;
51664;SDS011;37751;52.408;12.536;2024-02-16T10:22:22;8.90;;;3.95;;
51664;SDS011;37751;52.408;12.536;2024-02-16T10:24:53;8.70;;;4.28;;
51664;SDS011;37751;52.408;12.536;2024-02-16T10:28:06;7.30;;;2.78;;
51664;SDS011;37751;52.408;12.536;2024-02-16T10:32:39;6.82;;;2.38;;
51664;SDS011;37751;52.408;12.536;2024-02-16T10:34:47;6.90;;;2.38;;
51664;SDS011;37751;52.408;12.536;2024-02-16T10:37:21;5.55;;;2.10;;
51664;SDS011;37751;52.408;12.536;2024-02-16T10:40:33;4.32;;;1.98;;
51664;SDS011;37751;52.408;12.536;2024-02-16T10:43:23;7.13;;;2.88;;
51664;SDS011;37751;52.408;12.536;2024-02-16T10:46:23;4.68;;;2.40;;
51664;SDS011;37751;52.408;12.536;2024-02-16T10:49:36;5.93;;;2.38;;
51664;SDS011;37751;52.408;12.536;2024-02-16T10:52:28;5.00;;;1.90;;
51664;SDS011;37751;52.408;12.536;2024-02-16T10:55:21;4.55;;;1.85;;
51664;SDS011;37751;52.408;12.536;2024-02-16T10:58:24;4.75;;;2.33;;
51664;SDS011;37751;52.408;12.536;2024-02-16T11:01:20;4.47;;;2.25;;
51664;SDS011;37751;52.408;12.536;2024-02-16T11:04:11;9.38;;;2.45;;
51664;SDS011;37751;52.408;12.536;2024-02-16T11:07:10;8.07;;;2.15;;
51664;SDS011;37751;52.408;12.536;2024-02-16T11:09:48;3.95;;;2.60;;
51664;SDS011;37751;52.408;12.536;2024-02-16T11:12:23;8.95;;;4.93;;
51664;SDS011;37751;52.408;12.536;2024-02-16T11:14:56;5.25;;;3.03;;
51664;SDS011;37751;52.408;12.536;2024-02-16T11:17:32;4.72;;;2.13;;
51664;SDS011;37751;52.408;12.536;2024-02-16T11:20:45;5.80;;;2.67;;
51664;SDS011;37751;52.408;12.536;2024-02-16T11:23:24;7.75;;;3.80;;
51664;SDS011;37751;52.408;12.536;2024-02-16T11:26:34;4.43;;;2.85;;
51664;SDS011;37751;52.408;12.536;2024-02-16T11:29:27;2.72;;;2.00;;
51664;SDS011;37751;52.408;12.536;2024-02-16T11:32:26;3.42;;;1.52;;
51664;SDS011;37751;52.408;12.536;2024-02-16T11:35:11;3.67;;;1.60;;
51664;SDS011;37751;52.408;12.536;2024-02-16T11:38:07;3.65;;;1.50;;
51664;SDS011;37751;52.408;12.536;2024-02-16T11:40:59;3.88;;;2.40;;
51664;SDS011;37751;52.408;12.536;2024-02-16T11:44:04;4.57;;;1.92;;
51664;SDS011;37751;52.408;12.536;2024-02-16T11:46:35;3.17;;;1.65;;
51664;SDS011;37751;52.408;12.536;2024-02-16T11:49:20;5.60;;;1.55;;
51664;SDS011;37751;52.408;12.536;2024-02-16T11:51:52;4.70;;;1.58;;
51664;SDS011;37751;52.408;12.536;2024-02-16T11:54:52;2.85;;;1.38;;
51664;SDS011;37751;52.408;12.536;2024-02-16T11:57:49;4.65;;;1.20;;
51664;SDS011;37751;52.408;12.536;2024-02-16T12:00:33;5.03;;;1.40;;
51664;SDS011;37751;52.408;12.536;2024-02-16T12:03:19;5.07;;;1.40;;
51664;SDS011;37751;52.408;12.536;2024-02-16T12:06:31;4.10;;;1.80;;
51664;SDS011;37751;52.408;12.536;2024-02-16T12:09:17;3.50;;;1.40;;
51664;SDS011;37751;52.408;12.536;2024-02-16T12:11:54;2.20;;;1.17;;
51664;SDS011;37751;52.408;12.536;2024-02-16T12:14:58;3.38;;;1.33;;
51664;SDS011;37751;52.408;12.536;2024-02-16T12:17:45;5.47;;;1.50;;
51664;SDS011;37751;52.408;12.536;2024-02-16T12:20:59;3.50;;;1.63;;
51664;SDS011;37751;52.408;12.536;2024-02-16T12:23:55;4.55;;;1.52;;
51664;SDS011;37751;52.408;12.536;2024-02-16T12:26:38;2.65;;;1.30;;
51664;SDS011;37751;52.408;12.536;2024-02-16T12:29:30;5.00;;;2.03;;
51664;SDS011;37751;52.408;12.536;2024-02-16T12:32:21;2.90;;;1.13;;
51664;SDS011;37751;52.408;12.536;2024-02-16T12:35:16;2.10;;;1.15;;
51664;SDS011;37751;52.408;12.536;2024-02-16T12:37:50;2.60;;;1.27;;
51664;SDS011;37751;52.408;12.536;2024-02-16T12:40:32;1.42;;;1.00;;
51664;SDS011;37751;52.408;12.536;2024-02-16T12:43:07;1.58;;;1.10;;
51664;SDS011;37751;52.408;12.536;2024-02-16T12:45:40;5.10;;;2.00;;
51664;SDS011;37751;52.408;12.536;2024-02-16T12:48:24;3.33;;;1.65;;
51664;SDS011;37751;52.408;12.536;2024-02-16T12:51:28;3.85;;;1.50;;
51664;SDS011;37751;52.408;12.536;2024-02-16T12:54:02;4.10;;;1.45;;
51664;SDS011;37751;52.408;12.536;2024-02-16T12:56:39;3.65;;;1.17;;
51664;SDS011;37751;52.408;12.536;2024-02-16T12:59:14;2.83;;;1.38;;
51664;SDS011;37751;52.408;12.536;2024-02-16T13:02:12;6.40;;;2.30;;
51664;SDS011;37751;52.408;12.536;2024-02-16T13:04:49;3.47;;;1.92;;
51664;SDS011;37751;52.408;12.536;2024-02-16T13:07:49;7.63;;;2.67;;
51664;SDS011;37751;52.408;12.536;2024-02-16T13:10:41;4.40;;;1.52;;
51664;SDS011;37751;52.408;12.536;2024-02-16T13:13:24;4.47;;;1.40;;
51664;SDS011;37751;52.408;12.536;2024-02-16T13:16:19;5.80;;;2.63;;
51664;SDS011;37751;52.408;12.536;2024-02-16T13:18:54;4.70;;;2.08;;
51664;SDS011;37751;52.408;12.536;2024-02-16T13:22:05;5.80;;;1.73;;
51664;SDS011;37751;52.408;12.536;2024-02-16T13:24:40;9.05;;;2.65;;
51664;SDS011;37751;52.408;12.536;2024-02-16T13:27:21;3.08;;;1.58;;
51664;SDS011;37751;52.408;12.536;2024-02-16T13:29:52;4.18;;;1.38;;
51664;SDS011;37751;52.408;12.536;2024-02-16T13:32:44;2.42;;;1.33;;
51664;SDS011;37751;52.408;12.536;2024-02-16T13:35:26;5.10;;;1.55;;
51664;SDS011;37751;52.408;12.536;2024-02-16T13:37:59;2.47;;;1.40;;
51664;SDS011;37751;52.408;12.536;2024-02-16T13:40:34;7.85;;;2.08;;
51664;SDS011;37751;52.408;12.536;2024-02-16T13:43:37;10.07;;;2.28;;
51664;SDS011;37751;52.408;12.536;2024-02-16T13:46:09;4.85;;;1.92;;
51664;SDS011;37751;52.408;12.536;2024-02-16T13:48:54;5.10;;;1.40;;
51664;SDS011;37751;52.408;12.536;2024-02-16T13:51:49;6.55;;;1.45;;
51664;SDS011;37751;52.408;12.536;2024-02-16T13:54:30;5.82;;;1.80;;
51664;SDS011;37751;52.408;12.536;2024-02-16T13:57:08;4.95;;;2.38;;
51664;SDS011;37751;52.408;12.536;2024-02-16T13:59:42;3.20;;;1.55;;
51664;SDS011;37751;52.408;12.536;2024-02-16T14:02:13;3.92;;;1.80;;
51664;SDS011;37751;52.408;12.536;2024-02-16T14:04:55;3.00;;;1.35;;
51664;SDS011;37751;52.408;12.536;2024-02-16T14:07:35;3.65;;;1.58;;
51664;SDS011;37751;52.408;12.536;2024-02-16T14:10:43;3.05;;;1.60;;
51664;SDS011;37751;52.408;12.536;2024-02-16T14:13:37;5.13;;;1.48;;
51664;SDS011;37751;52.408;12.536;2024-02-16T14:16:28;6.18;;;1.45;;
51664;SDS011;37751;52.408;12.536;2024-02-16T14:19:20;3.13;;;1.88;;
51664;SDS011;37751;52.408;12.536;2024-02-16T14:21:52;4.18;;;1.83;;
51664;SDS011;37751;52.408;12.536;2024-02-16T14:24:24;6.10;;;1.67;;
51664;SDS011;37751;52.408;12.536;2024-02-16T14:27:15;3.50;;;1.90;;
51664;SDS011;37751;52.408;12.536;2024-02-16T14:30:31;5.15;;;1.92;;
51664;SDS011;37751;52.408;12.536;2024-02-16T14:33:06;5.47;;;1.50;;
51664;SDS011;37751;52.408;12.536;2024-02-16T14:36:09;3.30;;;1.77;;
51664;SDS011;37751;52.408;12.536;2024-02-16T14:39:14;5.88;;;1.83;;
51664;SDS011;37751;52.408;12.536;2024-02-16T14:42:06;5.80;;;1.83;;
51664;SDS011;37751;52.408;12.536;2024-02-16T14:44:58;2.60;;;1.52;;
51664;SDS011;37751;52.408;12.536;2024-02-16T14:47:42;3.15;;;1.50;;
51664;SDS011;37751;52.408;12.536;2024-02-16T14:50:25;3.65;;;1.15;;
51664;SDS011;37751;52.408;12.536;2024-02-16T14:52:59;4.10;;;1.60;;
51664;SDS011;37751;52.408;12.536;2024-02-16T14:55:31;4.85;;;1.50;;
51664;SDS011;37751;52.408;12.536;2024-02-16T14:58:25;4.80;;;1.85;;
51664;SDS011;37751;52.408;12.536;2024-02-16T15:00:58;3.92;;;1.45;;
51664;SDS011;37751;52.408;12.536;2024-02-16T15:03:34;4.60;;;1.70;;
51664;SDS011;37751;52.408;12.536;2024-02-16T15:06:23;8.07;;;2.15;;
51664;SDS011;37751;52.408;12.536;2024-02-16T15:09:34;3.88;;;1.77;;
51664;SDS011;37751;52.408;12.536;2024-02-16T15:12:26;3.70;;;1.70;;
51664;SDS011;37751;52.408;12.536;2024-02-16T15:15:38;5.20;;;1.45;;
51664;SDS011;37751;52.408;12.536;2024-02-16T15:18:53;3.88;;;1.67;;
51664;SDS011;37751;52.408;12.536;2024-02-16T15:22:06;8.13;;;2.50;;
51664;SDS011;37751;52.408;12.536;2024-02-16T15:25:11;3.33;;;1.55;;
51664;SDS011;37751;52.408;12.536;2024-02-16T15:27:45;6.32;;;2.60;;
51664;SDS011;37751;52.408;12.536;2024-02-16T15:30:27;3.30;;;1.60;;
51664;SDS011;37751;52.408;12.536;2024-02-16T15:33:19;4.45;;;1.55;;
51664;SDS011;37751;52.408;12.536;2024-02-16T15:36:08;3.60;;;1.70;;
51664;SDS011;37751;52.408;12.536;2024-02-16T15:39:00;5.78;;;2.10;;
51664;SDS011;37751;52.408;12.536;2024-02-16T15:41:34;4.38;;;2.10;;
51664;SDS011;37751;52.408;12.536;2024-02-16T15:44:35;4.43;;;2.28;;
51664;SDS011;37751;52.408;12.536;2024-02-16T15:47:08;3.90;;;2.13;;
51664;SDS011;37751;52.408;12.536;2024-02-16T15:49:51;4.43;;;2.85;;
51664;SDS011;37751;52.408;12.536;2024-02-16T15:52:34;7.10;;;3.50;;
51664;SDS011;37751;52.408;12.536;2024-02-16T15:55:19;6.03;;;2.90;;
51664;SDS011;37751;52.408;12.536;2024-02-16T15:58:13;6.45;;;3.28;;
51664;SDS011;37751;52.408;12.536;2024-02-16T16:01:07;6.75;;;3.05;;
51664;SDS011;37751;52.408;12.536;2024-02-16T16:04:13;5.22;;;2.50;;
51664;SDS011;37751;52.408;12.536;2024-02-16T16:06:57;5.07;;;3.05;;
51664;SDS011;37751;52.408;12.536;2024-02-16T16:10:11;6.15;;;2.72;;
51664;SDS011;37751;52.408;12.536;2024-02-16T16:13:15;4.40;;;2.75;;
51664;SDS011;37751;52.408;12.536;2024-02-16T16:15:47;9.02;;;3.05;;
51664;SDS011;37751;52.408;12.536;2024-02-16T16:18:35;5.53;;;2.70;;
51664;SDS011;37751;52.408;12.536;2024-02-16T16:21:31;7.97;;;2.58;;
51664;SDS011;37751;52.408;12.536;2024-02-16T16:24:16;8.48;;;3.08;;
51664;SDS011;37751;52.408;12.536;2024-02-16T16:27:31;6.30;;;2.88;;
51664;SDS011;37751;52.408;12.536;2024-02-16T16:30:16;4.80;;;2.85;;
51664;SDS011;37751;52.408;12.536;2024-02-16T16:32:50;8.02;;;3.70;;
51664;SDS011;37751;52.408;12.536;2024-02-16T16:35:53;8.75;;;3.22;;
51664;SDS011;37751;52.408;12.536;2024-02-16T16:38:25;6.28;;;3.47;;
51664;SDS011;37751;52.408;12.536;2024-02-16T16:41:13;4.32;;;2.80;;
51664;SDS011;37751;52.408;12.536;2024-02-16T16:43:59;10.43;;;3.97;;
51664;SDS011;37751;52.408;12.536;2024-02-16T16:46:54;7.72;;;3.65;;
51664;SDS011;37751;52.408;12.536;2024-02-16T16:50:10;7.50;;;3.88;;
51664;SDS011;37751;52.408;12.536;2024-02-16T16:53:21;7.00;;;3.72;;
51664;SDS011;37751;52.408;12.536;2024-02-16T16:56:03;6.32;;;3.60;;
51664;SDS011;37751;52.408;12.536;2024-02-16T16:58:39;7.35;;;3.80;;